Time;durP1;ratioP1;P1;durP2;ratioP2;P2;SDS_P1;SDS_P2;PMS_P1;PMS_P2;Temp;Humidity;BMP_temperature;BMP_pressure;BME280_temperature;BME280_humidity;BME280_pressure;Samples;Min_cycle;Max_cycle;Signal;HPM_P1;HPM_P2
2022/09/17 00:01:54;;;;;;;;;;;11.50;99.90;;;;;;4992225;28;19937;-81
2022/09/17 00:04:20;;;;;;;;;;;11.60;99.90;;;;;;5004876;28;19978;-80
2022/09/17 00:06:46;;;;;;;;;;;11.60;99.90;;;;;;5005052;28;19936;-81
2022/09/17 00:09:12;;;;;;;;;;;11.60;99.90;;;;;;5006321;28;19940;-78
2022/09/17 00:11:39;;;;;;;;;;;11.70;99.90;;;;;;4989868;28;20055;-81
2022/09/17 00:14:06;;;;;;;;;;;11.60;99.90;;;;;;5006099;28;20067;-81
2022/09/17 00:16:37;;;;;;;;;;;11.60;99.90;;;;;;5006160;28;19993;-81
2022/09/17 00:19:04;;;;;;;;;;;11.60;99.90;;;;;;4990005;28;19925;-79
2022/09/17 00:21:30;;;;;;;;;;;11.70;99.90;;;;;;5004709;28;19929;-81
2022/09/17 00:23:57;;;;;;;;;;;11.70;99.90;;;;;;5009189;28;19968;-79
2022/09/17 00:26:23;;;;;;;;;;;11.80;99.90;;;;;;4990221;28;19932;-83
2022/09/17 00:28:51;;;;;;;;;;;11.70;99.90;;;;;;5009583;28;19925;-80
2022/09/17 00:31:17;;;;;;;;;;;11.70;99.90;;;;;;4990342;28;19933;-81
2022/09/17 00:33:43;;;;;;;;;;;11.60;99.90;;;;;;4989018;28;20053;-81
2022/09/17 00:36:10;;;;;;;;;;;11.40;99.90;;;;;;4991653;28;20530;-84
2022/09/17 00:38:36;;;;;;;;;;;11.40;99.90;;;;;;4989859;28;20360;-82
2022/09/17 00:41:02;;;;;;;;;;;11.20;99.90;;;;;;5000868;28;19941;-83
2022/09/17 00:43:33;;;;;;;;;;;11.20;99.90;;;;;;4986140;28;20094;-83
2022/09/17 00:46:17;;;;;;;;;;;11.10;99.90;;;;;;5007143;28;19921;-82
2022/09/17 00:48:49;;;;;;;;;;;11.00;99.90;;;;;;4991320;28;19925;-81
2022/09/17 00:51:19;;;;;;;;;;;11.00;99.90;;;;;;4990294;28;19928;-81
2022/09/17 01:00:29;;;;;;;;;;;11.30;99.90;;;;;;5029672;28;19920;-81
2022/09/17 01:02:56;;;;;;;;;;;11.20;99.90;;;;;;4988964;28;19933;-81
2022/09/17 01:05:29;;;;;;;;;;;11.20;99.90;;;;;;4988904;28;20423;-80
2022/09/17 01:08:06;;;;;;;;;;;11.20;99.90;;;;;;5005694;28;19971;-80
2022/09/17 01:10:44;;;;;;;;;;;11.20;99.90;;;;;;5010536;28;19925;-81
2022/09/17 01:13:29;;;;;;;;;;;11.30;99.90;;;;;;5008762;28;19947;-82
2022/09/17 01:15:55;;;;;;;;;;;11.40;99.90;;;;;;4992342;28;20003;-80
2022/09/17 01:18:21;;;;;;;;;;;11.40;99.90;;;;;;4992303;28;20036;-83
2022/09/17 01:21:06;;;;;;;;;;;11.40;99.90;;;;;;5009123;28;21214;-78
2022/09/17 01:23:52;;;;;;;;;;;11.50;99.90;;;;;;4996620;28;19980;-77
2022/09/17 01:26:37;;;;;;;;;;;11.50;99.90;;;;;;4993425;28;20450;-81
2022/09/17 01:29:33;;;;;;;;;;;11.50;99.90;;;;;;5006983;28;19925;-79
2022/09/17 01:32:11;;;;;;;;;;;11.50;99.90;;;;;;5008346;28;20311;-81
2022/09/17 01:34:54;;;;;;;;;;;11.50;99.90;;;;;;5011167;28;19929;-79
2022/09/17 01:37:32;;;;;;;;;;;11.50;99.90;;;;;;5006798;28;19929;-79
2022/09/17 01:40:11;;;;;;;;;;;11.50;99.90;;;;;;5007678;28;19983;-81
2022/09/17 01:42:36;;;;;;;;;;;11.50;99.90;;;;;;5021945;28;19925;-80
2022/09/17 01:45:11;;;;;;;;;;;11.50;99.90;;;;;;5000462;28;20441;-78
2022/09/17 01:47:38;;;;;;;;;;;11.50;99.90;;;;;;5009040;28;19932;-80
2022/09/17 01:50:10;;;;;;;;;;;11.40;99.90;;;;;;5015781;28;19929;-80
2022/09/17 01:52:38;;;;;;;;;;;11.40;99.90;;;;;;5014286;28;19948;-83
2022/09/17 01:55:06;;;;;;;;;;;11.30;99.90;;;;;;4992828;28;20488;-80
2022/09/17 01:57:37;;;;;;;;;;;11.30;99.90;;;;;;5002035;28;20133;-80
2022/09/17 02:00:10;;;;;;;;;;;11.30;99.90;;;;;;5008187;28;19935;-83
2022/09/17 02:02:38;;;;;;;;;;;11.30;99.90;;;;;;4994966;28;19925;-80
2022/09/17 02:08:35;;;;;;;;;;;11.20;99.90;;;;;;5064480;23;19955;-77
2022/09/17 02:11:10;;;;;;;;;;;11.40;99.90;;;;;;5011659;28;19987;-74
2022/09/17 02:13:46;;;;;;;;;;;11.10;99.90;;;;;;5000876;28;19929;-75
2022/09/17 02:16:16;;;;;;;;;;;11.00;99.90;;;;;;5010350;28;19924;-77
2022/09/17 02:18:48;;;;;;;;;;;11.00;99.90;;;;;;4993618;28;20007;-77
2022/09/17 02:21:16;;;;;;;;;;;10.90;99.90;;;;;;5009758;28;19963;-76
2022/09/17 02:24:02;;;;;;;;;;;10.90;99.90;;;;;;5012189;28;19979;-75
2022/09/17 02:26:28;;;;;;;;;;;10.90;99.90;;;;;;5005400;28;19929;-74
2022/09/17 02:28:58;;;;;;;;;;;11.00;99.90;;;;;;5019076;28;20035;-76
2022/09/17 02:31:23;;;;;;;;;;;11.10;99.90;;;;;;4996252;28;19929;-76
2022/09/17 02:33:51;;;;;;;;;;;11.00;99.90;;;;;;5014920;28;19998;-76
2022/09/17 02:36:18;;;;;;;;;;;11.20;99.90;;;;;;5008907;28;19968;-77
2022/09/17 02:38:44;;;;;;;;;;;11.20;99.90;;;;;;5027188;28;19933;-76
2022/09/17 02:41:11;;;;;;;;;;;11.20;99.90;;;;;;4993525;28;20008;-80
2022/09/17 02:43:55;;;;;;;;;;;11.10;99.90;;;;;;5010183;28;19968;-78
2022/09/17 02:46:28;;;;;;;;;;;11.20;99.90;;;;;;5008577;28;19936;-77
2022/09/17 02:48:54;;;;;;;;;;;11.10;99.90;;;;;;5008046;28;19944;-76
2022/09/17 02:51:26;;;;;;;;;;;11.20;99.90;;;;;;5008273;28;19925;-77
2022/09/17 02:54:12;;;;;;;;;;;11.20;99.90;;;;;;5008053;28;19944;-76
2022/09/17 02:56:38;;;;;;;;;;;11.30;99.90;;;;;;4992785;28;20044;-79
2022/09/17 02:59:04;;;;;;;;;;;11.30;99.90;;;;;;4993134;28;20395;-76
2022/09/17 03:01:43;;;;;;;;;;;11.30;99.90;;;;;;4984260;28;19929;-77
2022/09/17 03:04:11;;;;;;;;;;;11.30;99.90;;;;;;5007835;28;20306;-75
2022/09/17 03:06:37;;;;;;;;;;;11.50;99.90;;;;;;5009324;28;19933;-80
2022/09/17 03:09:03;;;;;;;;;;;11.30;99.90;;;;;;4977029;28;20004;-76
2022/09/17 03:11:29;;;;;;;;;;;11.20;99.90;;;;;;4992843;28;19987;-76
2022/09/17 03:13:56;;;;;;;;;;;11.00;99.90;;;;;;5007723;28;20008;-76
2022/09/17 03:16:22;;;;;;;;;;;11.10;99.90;;;;;;4993034;28;20335;-76
2022/09/17 03:18:48;;;;;;;;;;;10.80;99.90;;;;;;4987727;28;19929;-80
2022/09/17 03:21:14;;;;;;;;;;;10.70;99.90;;;;;;5005370;28;20027;-75
2022/09/17 03:23:40;;;;;;;;;;;10.60;99.90;;;;;;4991237;28;19936;-76
2022/09/17 03:26:06;;;;;;;;;;;10.60;99.90;;;;;;4992175;28;19936;-76
2022/09/17 03:28:31;;;;;;;;;;;10.50;99.90;;;;;;4989161;28;19932;-77
2022/09/17 03:30:57;;;;;;;;;;;10.50;99.90;;;;;;5003340;28;20431;-75
2022/09/17 03:33:23;;;;;;;;;;;10.50;99.90;;;;;;4989158;28;19929;-76
2022/09/17 03:35:49;;;;;;;;;;;10.50;99.90;;;;;;4975994;28;20273;-75
2022/09/17 03:38:15;;;;;;;;;;;10.50;99.90;;;;;;4992018;28;20020;-82
2022/09/17 03:40:41;;;;;;;;;;;10.50;99.90;;;;;;5008613;28;20008;-77
2022/09/17 03:43:07;;;;;;;;;;;10.40;99.90;;;;;;5008044;28;19968;-76
2022/09/17 03:45:33;;;;;;;;;;;10.50;99.90;;;;;;5002955;28;20031;-75
2022/09/17 03:47:59;;;;;;;;;;;10.60;99.90;;;;;;4975794;28;20024;-79
2022/09/17 03:50:25;;;;;;;;;;;10.70;99.90;;;;;;4989029;28;19989;-78
2022/09/17 03:52:51;;;;;;;;;;;10.90;99.90;;;;;;4989869;28;19926;-78
2022/09/17 03:55:17;;;;;;;;;;;10.80;99.90;;;;;;5008126;28;19983;-79
2022/09/17 03:57:43;;;;;;;;;;;10.80;99.90;;;;;;5025635;28;20174;-77
2022/09/17 04:00:09;;;;;;;;;;;10.80;99.90;;;;;;5003498;28;20271;-76
2022/09/17 04:02:34;;;;;;;;;;;10.80;99.90;;;;;;5025385;28;19925;-76
2022/09/17 04:05:00;;;;;;;;;;;10.70;99.90;;;;;;4989808;28;19979;-77
2022/09/17 04:07:26;;;;;;;;;;;10.60;99.90;;;;;;5022738;28;19929;-76
2022/09/17 04:09:52;;;;;;;;;;;10.60;99.90;;;;;;4970741;28;19932;-78
2022/09/17 04:12:17;;;;;;;;;;;10.50;99.90;;;;;;4973476;28;19926;-75
2022/09/17 04:14:43;;;;;;;;;;;10.50;99.90;;;;;;4988172;28;19933;-77
2022/09/17 04:17:10;;;;;;;;;;;10.50;99.90;;;;;;4986594;28;19964;-80
2022/09/17 04:19:36;;;;;;;;;;;10.40;99.90;;;;;;4986557;28;19968;-77
2022/09/17 04:22:02;;;;;;;;;;;10.40;99.90;;;;;;4958069;28;19975;-74
2022/09/17 04:24:28;;;;;;;;;;;10.40;99.90;;;;;;4987686;28;20796;-82
2022/09/17 04:26:54;;;;;;;;;;;10.40;99.90;;;;;;4999245;28;19965;-77
2022/09/17 04:29:20;;;;;;;;;;;10.40;99.90;;;;;;4972018;28;19925;-77
2022/09/17 04:31:46;;;;;;;;;;;10.40;99.90;;;;;;4987503;28;20280;-76
2022/09/17 04:34:11;;;;;;;;;;;10.30;99.90;;;;;;4986413;28;19928;-76
2022/09/17 04:36:37;;;;;;;;;;;10.40;99.90;;;;;;4970769;28;19926;-78
2022/09/17 04:39:03;;;;;;;;;;;10.40;99.90;;;;;;4988115;28;19972;-77
2022/09/17 04:41:28;;;;;;;;;;;10.40;99.90;;;;;;4956048;28;19940;-75
2022/09/17 04:43:54;;;;;;;;;;;10.40;99.90;;;;;;4991909;28;19937;-82
2022/09/17 04:46:20;;;;;;;;;;;10.50;99.90;;;;;;4990671;28;20044;-80
2022/09/17 04:48:46;;;;;;;;;;;10.60;99.90;;;;;;4978357;28;19925;-80
2022/09/17 04:51:11;;;;;;;;;;;10.60;99.90;;;;;;4961582;28;19926;-80
2022/09/17 04:53:37;;;;;;;;;;;10.70;99.90;;;;;;4992021;28;20016;-81
2022/09/17 04:56:03;;;;;;;;;;;10.60;99.90;;;;;;4961071;28;20015;-82
2022/09/17 04:58:30;;;;;;;;;;;10.60;99.90;;;;;;4993668;28;19930;-78
2022/09/17 05:00:55;;;;;;;;;;;10.50;99.90;;;;;;4956983;28;20440;-77
2022/09/17 05:03:21;;;;;;;;;;;10.50;99.90;;;;;;4992936;28;19983;-76
2022/09/17 05:05:48;;;;;;;;;;;10.50;99.90;;;;;;4993474;28;19925;-75
2022/09/17 05:08:14;;;;;;;;;;;10.40;99.90;;;;;;4998518;28;20342;-77
2022/09/17 05:10:39;;;;;;;;;;;10.40;99.90;;;;;;5012022;28;20015;-77
2022/09/17 05:13:05;;;;;;;;;;;10.40;99.90;;;;;;4997139;28;20014;-83
2022/09/17 05:15:31;;;;;;;;;;;10.40;99.90;;;;;;4997071;28;20434;-81
2022/09/17 05:17:58;;;;;;;;;;;10.40;99.90;;;;;;5013460;28;19936;-83
2022/09/17 05:20:23;;;;;;;;;;;10.40;99.90;;;;;;5009302;28;19933;-79
2022/09/17 05:22:50;;;;;;;;;;;10.30;99.90;;;;;;5014530;28;19933;-77
2022/09/17 05:25:17;;;;;;;;;;;10.40;99.90;;;;;;5013181;28;19928;-78
2022/09/17 05:27:44;;;;;;;;;;;10.40;99.90;;;;;;4997149;28;20590;-77
2022/09/17 05:30:10;;;;;;;;;;;10.40;99.90;;;;;;5012775;28;19929;-82
2022/09/17 05:32:36;;;;;;;;;;;10.50;99.90;;;;;;5011627;28;19995;-81
2022/09/17 05:35:02;;;;;;;;;;;10.50;99.90;;;;;;5009719;28;20389;-81
2022/09/17 05:37:28;;;;;;;;;;;10.60;99.90;;;;;;4997012;28;19961;-78
2022/09/17 05:39:54;;;;;;;;;;;10.70;99.90;;;;;;5005733;28;19972;-81
2022/09/17 05:42:20;;;;;;;;;;;10.80;99.90;;;;;;5010022;28;19932;-83
2022/09/17 05:44:46;;;;;;;;;;;10.90;99.90;;;;;;5005944;28;19929;-81
2022/09/17 05:47:11;;;;;;;;;;;11.00;99.90;;;;;;4994857;28;19933;-82
2022/09/17 05:49:37;;;;;;;;;;;11.20;99.90;;;;;;5012466;28;19921;-83
2022/09/17 05:52:04;;;;;;;;;;;;;;;;;;4990810;28;19929;-80
2022/09/17 05:54:30;;;;;;;;;;;11.40;99.90;;;;;;4989108;28;19932;-77
2022/09/17 05:56:55;;;;;;;;;;;11.50;99.90;;;;;;4984354;28;20008;-78
2022/09/17 05:59:21;;;;;;;;;;;11.40;99.90;;;;;;4999837;28;19944;-78
2022/09/17 06:01:47;;;;;;;;;;;11.40;99.90;;;;;;4973769;28;20415;-78
2022/09/17 06:04:13;;;;;;;;;;;11.40;99.90;;;;;;4986607;28;21444;-80
2022/09/17 06:06:40;;;;;;;;;;;11.40;99.90;;;;;;4989284;28;20621;-78
2022/09/17 06:09:06;;;;;;;;;;;11.50;99.90;;;;;;5002910;28;20056;-78
2022/09/17 06:11:32;;;;;;;;;;;11.50;99.90;;;;;;5002706;28;19978;-77
2022/09/17 06:13:58;;;;;;;;;;;11.60;99.90;;;;;;4987380;28;20376;-79
2022/09/17 06:16:24;;;;;;;;;;;11.50;99.90;;;;;;4987321;28;20605;-80
2022/09/17 06:18:51;;;;;;;;;;;11.50;99.90;;;;;;4987953;28;19936;-79
2022/09/17 06:21:18;;;;;;;;;;;11.40;99.90;;;;;;4970207;28;20376;-78
2022/09/17 06:23:44;;;;;;;;;;;11.30;99.90;;;;;;4987984;28;19960;-79
2022/09/17 06:26:10;;;;;;;;;;;11.30;99.90;;;;;;4998429;28;19934;-80
2022/09/17 06:28:36;;;;;;;;;;;11.20;99.90;;;;;;4999091;28;19925;-80
2022/09/17 06:31:03;;;;;;;;;;;11.10;99.90;;;;;;4981189;28;19941;-77
2022/09/17 06:33:29;;;;;;;;;;;11.10;99.90;;;;;;4999959;28;19976;-77
2022/09/17 06:35:56;;;;;;;;;;;11.10;99.90;;;;;;4998034;28;19969;-76
2022/09/17 06:38:22;;;;;;;;;;;11.20;99.90;;;;;;4979067;28;19987;-78
2022/09/17 06:40:51;;;;;;;;;;;11.20;99.90;;;;;;4983988;28;19930;-78
2022/09/17 06:43:17;;;;;;;;;;;11.20;99.90;;;;;;4981007;28;20489;-76
2022/09/17 06:45:50;;;;;;;;;;;11.20;99.90;;;;;;4978948;28;19929;-79
2022/09/17 06:48:17;;;;;;;;;;;11.30;99.90;;;;;;4994241;28;19933;-78
2022/09/17 06:52:03;;;;;;;;;;;11.40;99.90;;;;;;4962713;28;19926;-78
2022/09/17 06:54:27;;;;;;;;;;;11.50;99.90;;;;;;5010811;28;19920;-78
2022/09/17 06:56:53;;;;;;;;;;;11.60;99.90;;;;;;4982161;28;19929;-79
2022/09/17 06:59:18;;;;;;;;;;;11.60;99.90;;;;;;5000343;28;19929;-77
2022/09/17 07:01:46;;;;;;;;;;;11.70;99.90;;;;;;4996650;28;20357;-78
2022/09/17 07:04:12;;;;;;;;;;;11.70;99.90;;;;;;4997360;28;20015;-82
2022/09/17 07:06:37;;;;;;;;;;;11.70;99.90;;;;;;4981746;28;19935;-74
2022/09/17 07:09:03;;;;;;;;;;;11.90;99.90;;;;;;5016038;28;19929;-80
2022/09/17 07:11:30;;;;;;;;;;;12.00;99.90;;;;;;4978946;28;19940;-77
2022/09/17 07:13:56;;;;;;;;;;;12.20;99.90;;;;;;4999487;28;19925;-78
2022/09/17 07:16:22;;;;;;;;;;;12.30;99.90;;;;;;4968675;28;19980;-77
2022/09/17 07:18:48;;;;;;;;;;;12.40;99.90;;;;;;4999339;28;19929;-79
2022/09/17 07:21:14;;;;;;;;;;;12.20;99.90;;;;;;4984836;28;19990;-78
2022/09/17 07:23:40;;;;;;;;;;;13.10;99.90;;;;;;4982542;28;20015;-80
2022/09/17 07:26:11;;;;;;;;;;;11.90;99.90;;;;;;5000813;28;19925;-77
2022/09/17 07:28:40;;;;;;;;;;;12.00;99.90;;;;;;4993143;28;19938;-77
2022/09/17 07:31:06;;;;;;;;;;;11.60;99.90;;;;;;4966929;28;20291;-80
2022/09/17 07:33:33;;;;;;;;;;;11.60;99.90;;;;;;4967234;28;19933;-77
2022/09/17 07:36:00;;;;;;;;;;;11.70;99.90;;;;;;4997274;28;20003;-79
2022/09/17 07:38:27;;;;;;;;;;;11.90;99.90;;;;;;4992002;28;20504;-78
2022/09/17 07:40:58;;;;;;;;;;;12.10;99.90;;;;;;4996884;28;19936;-77
2022/09/17 07:43:25;;;;;;;;;;;12.30;99.90;;;;;;4997649;28;19964;-77
2022/09/17 07:45:52;;;;;;;;;;;12.50;99.90;;;;;;4990881;28;19940;-78
2022/09/17 07:48:19;;;;;;;;;;;12.70;99.90;;;;;;4998918;28;19990;-79
2022/09/17 07:50:44;;;;;;;;;;;13.30;99.90;;;;;;4977883;28;20319;-80
2022/09/17 07:53:10;;;;;;;;;;;13.50;99.90;;;;;;4982820;28;19975;-81
2022/09/17 07:55:36;;;;;;;;;;;13.30;99.90;;;;;;5001242;28;19928;-76
2022/09/17 07:58:02;;;;;;;;;;;12.80;99.90;;;;;;4979762;28;20066;-78
2022/09/17 08:00:28;;;;;;;;;;;12.40;99.90;;;;;;4976610;28;19930;-75
2022/09/17 08:02:55;;;;;;;;;;;12.10;99.90;;;;;;4979137;28;20670;-80
2022/09/17 08:05:21;;;;;;;;;;;12.00;99.90;;;;;;4981657;28;19986;-78
2022/09/17 08:07:51;;;;;;;;;;;12.40;99.90;;;;;;4991416;28;19929;-79
2022/09/17 08:10:20;;;;;;;;;;;13.40;99.90;;;;;;4959818;28;20159;-84
2022/09/17 08:12:49;;;;;;;;;;;14.20;99.90;;;;;;4978877;28;19925;-80
2022/09/17 08:15:15;;;;;;;;;;;14.60;99.90;;;;;;4975482;28;19926;-75
2022/09/17 08:17:44;;;;;;;;;;;15.20;99.90;;;;;;4981143;28;19925;-78
2022/09/17 08:20:11;;;;;;;;;;;15.70;99.90;;;;;;4981542;28;19969;-78
2022/09/17 08:22:37;;;;;;;;;;;16.00;99.90;;;;;;4980528;28;20516;-80
2022/09/17 08:25:03;;;;;;;;;;;16.00;99.90;;;;;;4980430;28;19925;-80
2022/09/17 08:27:30;;;;;;;;;;;15.50;99.90;;;;;;4963230;28;19933;-76
2022/09/17 08:29:56;;;;;;;;;;;14.90;99.90;;;;;;4963081;28;19929;-76
2022/09/17 08:32:22;;;;;;;;;;;14.80;99.90;;;;;;4961256;28;19995;-76
2022/09/17 08:34:47;;;;;;;;;;;14.70;99.90;;;;;;4993347;28;19936;-77
2022/09/17 08:37:13;;;;;;;;;;;14.70;99.90;;;;;;4973268;28;19936;-77
2022/09/17 08:39:39;;;;;;;;;;;14.60;99.90;;;;;;4980166;28;19972;-76
2022/09/17 08:42:12;;;;;;;;;;;14.40;99.90;;;;;;4963214;28;19936;-76
2022/09/17 08:44:40;;;;;;;;;;;14.30;99.90;;;;;;4982608;28;19936;-76
2022/09/17 08:47:21;;;;;;;;;;;14.50;99.90;;;;;;4987014;28;19930;-78
2022/09/17 08:49:50;;;;;;;;;;;14.50;99.90;;;;;;4969719;28;20007;-80
2022/09/17 08:52:18;;;;;;;;;;;14.40;99.90;;;;;;4986874;28;19930;-80
2022/09/17 08:54:53;;;;;;;;;;;14.30;99.90;;;;;;4987766;28;20003;-79
2022/09/17 08:57:40;;;;;;;;;;;13.80;99.90;;;;;;4978459;28;20046;-78
2022/09/17 09:00:09;;;;;;;;;;;13.50;99.90;;;;;;4962186;28;20304;-77
2022/09/17 09:02:35;;;;;;;;;;;13.10;99.90;;;;;;4973529;28;19979;-78
2022/09/17 09:05:07;;;;;;;;;;;12.80;99.90;;;;;;4992681;28;20615;-81
2022/09/17 09:07:42;;;;;;;;;;;12.70;99.90;;;;;;4981535;28;20015;-79
2022/09/17 09:10:22;;;;;;;;;;;12.50;99.90;;;;;;4977852;28;19971;-75
2022/09/17 09:12:49;;;;;;;;;;;12.30;99.90;;;;;;4980375;28;19926;-79
2022/09/17 09:15:20;;;;;;;;;;;12.50;99.90;;;;;;4985202;28;20415;-79
2022/09/17 09:17:48;;;;;;;;;;;12.70;99.90;;;;;;4984235;28;20067;-81
2022/09/17 09:20:37;;;;;;;;;;;13.00;99.90;;;;;;4963864;28;19968;-78
2022/09/17 09:23:22;;;;;;;;;;;13.10;99.90;;;;;;4970466;28;19936;-80
2022/09/17 09:25:52;;;;;;;;;;;13.30;99.90;;;;;;4980132;28;20393;-77
2022/09/17 09:28:32;;;;;;;;;;;13.40;99.90;;;;;;4981519;28;20419;-77
2022/09/17 09:31:16;;;;;;;;;;;13.50;99.90;;;;;;4980344;28;20491;-77
2022/09/17 09:33:42;;;;;;;;;;;13.50;99.90;;;;;;4984883;28;19926;-77
2022/09/17 09:36:13;;;;;;;;;;;13.60;99.90;;;;;;4972445;28;20012;-78
2022/09/17 09:38:55;;;;;;;;;;;13.40;99.90;;;;;;4984962;28;20558;-80
2022/09/17 09:41:41;;;;;;;;;;;13.10;99.90;;;;;;4984561;28;19930;-80
2022/09/17 09:44:11;;;;;;;;;;;12.90;99.90;;;;;;4973276;28;19933;-82
2022/09/17 09:46:40;;;;;;;;;;;12.70;99.90;;;;;;4978020;28;19933;-78
2022/09/17 09:49:29;;;;;;;;;;;12.40;99.90;;;;;;4980624;28;19972;-79
2022/09/17 09:51:58;;;;;;;;;;;12.10;99.90;;;;;;4969160;28;20423;-77
2022/09/17 09:54:44;;;;;;;;;;;11.90;99.90;;;;;;4961054;28;19937;-79
2022/09/17 09:57:12;;;;;;;;;;;11.80;99.90;;;;;;4916158;28;19926;-79
2022/09/17 09:59:40;;;;;;;;;;;11.90;99.90;;;;;;4980381;28;20376;-79
2022/09/17 10:02:06;;;;;;;;;;;12.20;99.90;;;;;;4968830;28;19929;-78
2022/09/17 10:04:32;;;;;;;;;;;12.50;99.90;;;;;;4982691;28;19925;-80
2022/09/17 10:07:04;;;;;;;;;;;12.60;99.90;;;;;;4965490;28;19971;-83
2022/09/17 10:09:31;;;;;;;;;;;12.60;99.90;;;;;;5002521;28;19929;-77
2022/09/17 10:12:02;;;;;;;;;;;12.60;99.90;;;;;;5003379;28;20435;-77
2022/09/17 10:14:32;;;;;;;;;;;12.90;99.90;;;;;;4987629;28;20032;-78
2022/09/17 10:17:19;;;;;;;;;;;13.20;99.90;;;;;;5003321;28;20016;-79
2022/09/17 10:20:09;;;;;;;;;;;13.40;99.90;;;;;;4983581;28;19968;-76
2022/09/17 10:22:36;;;;;;;;;;;13.40;99.90;;;;;;5003054;28;19940;-79
2022/09/17 10:25:04;;;;;;;;;;;13.40;99.90;;;;;;4983108;28;19921;-78
2022/09/17 10:27:30;;;;;;;;;;;13.40;99.90;;;;;;4978268;28;20395;-80
2022/09/17 10:30:01;;;;;;;;;;;13.40;99.90;;;;;;4980560;28;20011;-81
2022/09/17 10:32:27;;;;;;;;;;;13.70;99.90;;;;;;4996857;28;19926;-77
2022/09/17 10:35:17;;;;;;;;;;;13.80;99.90;;;;;;4995692;28;19936;-78
2022/09/17 10:37:44;;;;;;;;;;;13.80;99.90;;;;;;4983588;28;19965;-78
2022/09/17 10:40:16;;;;;;;;;;;13.80;99.90;;;;;;4980238;28;19929;-79
2022/09/17 10:57:57;;;;;;;;;;;15.00;99.90;;;;;;4992506;23;20284;-78
2022/09/17 11:00:27;;;;;;;;;;;15.20;99.90;;;;;;4973782;28;19968;-79
2022/09/17 11:03:12;;;;;;;;;;;14.90;99.90;;;;;;4967430;28;19959;-78
2022/09/17 11:05:58;;;;;;;;;;;14.70;99.90;;;;;;4990434;28;19938;-80
2022/09/17 11:08:38;;;;;;;;;;;14.80;99.90;;;;;;4978888;28;19964;-80
2022/09/17 11:11:33;;;;;;;;;;;15.10;99.90;;;;;;4973250;28;20267;-83
2022/09/17 11:14:40;;;;;;;;;;;15.30;99.90;;;;;;4999023;28;19940;-80
2022/09/17 11:17:25;;;;;;;;;;;15.30;99.90;;;;;;4986707;28;21384;-83
2022/09/17 11:20:00;;;;;;;;;;;15.40;99.90;;;;;;4961370;28;19929;-81
2022/09/17 11:22:29;;;;;;;;;;;15.40;99.90;;;;;;4964395;28;19933;-82
2022/09/17 11:25:13;;;;;;;;;;;15.50;99.90;;;;;;4972265;28;19987;-81
2022/09/17 11:30:54;;;;;;;;;;;15.80;99.90;;;;;;4976936;28;19999;-81
2022/09/17 11:33:33;;;;;;;;;;;15.70;99.90;;;;;;4972906;28;20036;-82
2022/09/17 11:36:14;;;;;;;;;;;15.80;99.90;;;;;;4975179;28;20367;-83
2022/09/17 11:38:46;;;;;;;;;;;16.00;99.90;;;;;;4976978;28;19934;-80
2022/09/17 11:41:25;;;;;;;;;;;15.60;99.90;;;;;;4979853;28;20344;-79
2022/09/17 11:47:17;;;;;;;;;;;15.50;99.90;;;;;;4982473;28;20507;-84
2022/09/17 11:49:43;;;;;;;;;;;15.60;99.90;;;;;;4984689;28;19937;-86
2022/09/17 11:52:21;;;;;;;;;;;15.70;99.90;;;;;;4966623;28;19926;-81
2022/09/17 11:55:01;;;;;;;;;;;15.80;99.90;;;;;;4967435;28;19937;-83
2022/09/17 11:57:27;;;;;;;;;;;15.90;99.90;;;;;;4966417;28;20748;-81
2022/09/17 12:00:26;;;;;;;;;;;15.60;99.90;;;;;;4967905;28;19930;-82
2022/09/17 12:03:12;;;;;;;;;;;15.30;99.90;;;;;;4931377;28;19930;-85
2022/09/17 12:05:43;;;;;;;;;;;15.10;99.90;;;;;;4966642;28;20352;-79
2022/09/17 12:08:18;;;;;;;;;;;14.90;99.90;;;;;;4985110;28;19944;-80
2022/09/17 12:10:44;;;;;;;;;;;14.90;99.90;;;;;;4982338;28;20048;-80
2022/09/17 12:13:12;;;;;;;;;;;15.00;99.90;;;;;;4977017;28;20016;-78
2022/09/17 12:15:42;;;;;;;;;;;15.30;99.90;;;;;;4972991;28;20249;-81
2022/09/17 12:18:14;;;;;;;;;;;15.40;99.90;;;;;;4969235;28;19930;-78
2022/09/17 12:20:43;;;;;;;;;;;15.40;99.90;;;;;;4980247;28;19930;-84
2022/09/17 12:23:11;;;;;;;;;;;15.40;99.90;;;;;;4989677;28;19925;-85
2022/09/17 12:25:42;;;;;;;;;;;15.20;99.90;;;;;;4974892;28;19969;-79
2022/09/17 12:28:12;;;;;;;;;;;15.00;99.90;;;;;;4969014;28;20410;-79
2022/09/17 12:30:46;;;;;;;;;;;14.70;99.90;;;;;;4974164;28;19933;-85
2022/09/17 12:33:33;;;;;;;;;;;14.40;99.90;;;;;;4970376;28;20442;-85
2022/09/17 12:36:12;;;;;;;;;;;14.30;99.90;;;;;;4974388;28;19969;-81
2022/09/17 12:38:44;;;;;;;;;;;14.20;99.90;;;;;;4988584;28;20598;-79
2022/09/17 12:41:13;;;;;;;;;;;14.20;99.90;;;;;;5001384;28;19991;-77
2022/09/17 12:43:54;;;;;;;;;;;14.00;99.90;;;;;;4967191;28;19929;-81
2022/09/17 12:46:26;;;;;;;;;;;13.80;99.90;;;;;;4976139;28;19926;-80
2022/09/17 12:48:53;;;;;;;;;;;13.80;99.90;;;;;;4967637;28;19934;-78
2022/09/17 12:51:37;;;;;;;;;;;13.80;99.90;;;;;;4962979;28;20242;-82
2022/09/17 12:54:15;;;;;;;;;;;13.90;99.90;;;;;;4991650;28;19931;-85
2022/09/17 12:56:41;;;;;;;;;;;14.10;99.90;;;;;;4982961;28;19925;-83
2022/09/17 12:59:14;;;;;;;;;;;14.20;99.90;;;;;;4986015;28;20044;-80
2022/09/17 13:01:59;;;;;;;;;;;14.20;99.90;;;;;;4983522;28;20470;-80
2022/09/17 13:04:28;;;;;;;;;;;14.30;99.90;;;;;;4982909;28;19941;-84
2022/09/17 13:06:57;;;;;;;;;;;14.50;99.90;;;;;;4978639;28;20039;-82
2022/09/17 13:09:40;;;;;;;;;;;14.70;99.90;;;;;;4967694;28;19930;-84
2022/09/17 13:12:23;;;;;;;;;;;14.90;99.90;;;;;;4980632;28;20330;-86
2022/09/17 13:14:58;;;;;;;;;;;14.80;99.90;;;;;;4970734;28;20592;-82
2022/09/17 13:17:31;;;;;;;;;;;14.70;99.90;;;;;;4971489;28;19944;-83
2022/09/17 13:20:13;;;;;;;;;;;14.80;99.90;;;;;;4982511;28;19972;-83
2022/09/17 13:22:46;;;;;;;;;;;14.90;99.90;;;;;;4963946;28;19929;-82
2022/09/17 13:25:14;;;;;;;;;;;14.90;99.90;;;;;;4971446;28;19987;-81
2022/09/17 13:27:40;;;;;;;;;;;15.00;99.90;;;;;;4968788;28;19929;-81
2022/09/17 13:30:07;;;;;;;;;;;15.00;99.90;;;;;;4988256;28;20388;-78
2022/09/17 13:32:33;;;;;;;;;;;15.00;99.90;;;;;;4972585;28;20033;-82
2022/09/17 13:35:05;;;;;;;;;;;15.00;99.90;;;;;;4978447;28;19935;-82
2022/09/17 13:37:41;;;;;;;;;;;15.00;99.90;;;;;;4978823;28;19976;-80
2022/09/17 13:40:26;;;;;;;;;;;15.10;99.90;;;;;;4977168;28;19934;-77
2022/09/17 13:42:55;;;;;;;;;;;15.20;99.90;;;;;;4970270;28;19929;-81
2022/09/17 13:45:22;;;;;;;;;;;15.30;99.90;;;;;;4990291;28;19940;-80
2022/09/17 13:47:53;;;;;;;;;;;15.40;99.90;;;;;;4977869;28;20382;-82
2022/09/17 13:50:38;;;;;;;;;;;15.40;99.90;;;;;;4985653;28;20007;-84
2022/09/17 13:53:16;;;;;;;;;;;15.50;99.90;;;;;;4965275;28;19934;-85
2022/09/17 13:55:43;;;;;;;;;;;15.60;99.90;;;;;;4986026;28;20059;-83
2022/09/17 13:58:17;;;;;;;;;;;15.40;99.90;;;;;;5000416;28;20431;-84
2022/09/17 14:00:51;;;;;;;;;;;15.20;99.90;;;;;;4969364;28;19971;-83
2022/09/17 14:03:30;;;;;;;;;;;15.20;99.90;;;;;;4990783;28;19939;-80
2022/09/17 14:06:08;;;;;;;;;;;15.20;99.90;;;;;;4970902;28;20332;-84
2022/09/17 14:08:43;;;;;;;;;;;15.10;99.90;;;;;;4986801;28;19929;-83
2022/09/17 14:11:21;;;;;;;;;;;14.90;99.90;;;;;;4976168;28;20044;-83
2022/09/17 14:13:52;;;;;;;;;;;14.70;99.90;;;;;;4971026;28;19930;-83
2022/09/17 14:16:27;;;;;;;;;;;14.60;99.90;;;;;;4972978;28;20060;-80
2022/09/17 14:19:23;;;;;;;;;;;14.50;99.90;;;;;;4981440;28;19933;-84
2022/09/17 14:22:02;;;;;;;;;;;14.40;99.90;;;;;;4983047;28;19933;-78
2022/09/17 14:24:34;;;;;;;;;;;14.30;99.90;;;;;;4960104;28;19937;-82
2022/09/17 14:27:16;;;;;;;;;;;14.40;99.90;;;;;;4982870;28;19940;-78
2022/09/17 14:29:57;;;;;;;;;;;14.30;99.90;;;;;;4984996;28;19930;-80
2022/09/17 14:32:30;;;;;;;;;;;13.80;99.90;;;;;;4973339;28;20409;-79
2022/09/17 14:34:57;;;;;;;;;;;;;;;;;;4964727;28;19925;-79
2022/09/17 14:37:23;;;;;;;;;;;13.50;99.90;;;;;;4976165;28;20373;-78
2022/09/17 14:39:53;;;;;;;;;;;13.40;99.90;;;;;;4974355;28;20008;-82
2022/09/17 14:42:29;;;;;;;;;;;13.40;99.90;;;;;;4981350;28;19968;-80
2022/09/17 14:44:58;;;;;;;;;;;13.50;99.90;;;;;;4969271;28;20402;-79
2022/09/17 14:47:25;;;;;;;;;;;13.60;99.90;;;;;;4992940;28;19949;-84
2022/09/17 14:49:55;;;;;;;;;;;13.60;99.90;;;;;;4964961;28;19940;-81
2022/09/17 14:52:29;;;;;;;;;;;13.80;99.90;;;;;;4965080;28;20416;-81
2022/09/17 14:55:08;;;;;;;;;;;13.90;99.90;;;;;;4985327;28;20068;-84
2022/09/17 14:57:53;;;;;;;;;;;14.00;99.90;;;;;;4955301;28;19984;-90
2022/09/17 15:00:23;;;;;;;;;;;14.10;99.90;;;;;;4960911;28;20378;-84
2022/09/17 15:02:58;;;;;;;;;;;14.20;99.90;;;;;;4966194;28;19933;-79
2022/09/17 15:05:32;;;;;;;;;;;14.50;99.90;;;;;;4965610;28;19930;-80
2022/09/17 15:08:17;;;;;;;;;;;13.90;99.90;;;;;;4965772;28;19940;-86
2022/09/17 15:10:53;;;;;;;;;;;13.70;99.90;;;;;;4975950;28;19962;-79
2022/09/17 15:13:27;;;;;;;;;;;13.60;99.90;;;;;;4984375;28;19987;-82